NCAR-RAP Real-Time Weather Data

Output produced by METARs form (17 November 2017  17:47 UTC)
found at http://weather.rap.ucar.edu/surface/
 
Conditions at: KMCF observed 17 November 2017  16:57 UTC
Temperature: 24.0°C (75°F)
Dewpoint: 13.8°C (57°F) [RH = 53%]
Pressure (altimeter): 30.09 inches Hg (1019.0 mb)
[Sea-level pressure: 1019.3 mb]
Winds: from the E (90 degrees) at 6 MPH (5 knots; 2.6 m/s)
Visibility: 10 or more miles (16+ km)
Ceiling: at least 12,000 feet AGL
Clouds: sky clear below 12,000 feet AGL
Present Weather:
SOME DATA ABOVE MAY BE INACCURATE!!!
"$" is an indication the sensor requires maintenance
KMCF 171657Z 09005KT 10SM CLR 24/14 A3009 RMK AO2A SLP193 T02400138 $

Conditions at: KMCF observed 17 November 2017  15:56 UTC
Temperature: 22.9°C (73°F)
Dewpoint: 13.6°C (56°F) [RH = 56%]
Pressure (altimeter): 30.11 inches Hg (1019.7 mb)
[Sea-level pressure: 1019.9 mb]
Winds: from the E (80 degrees) at 8 MPH (7 knots; 3.6 m/s)
Visibility: 10 or more miles (16+ km)
Ceiling: at least 12,000 feet AGL
Clouds: sky clear below 12,000 feet AGL
Present Weather:
SOME DATA ABOVE MAY BE INACCURATE!!!
"$" is an indication the sensor requires maintenance
KMCF 171556Z 08007KT 10SM CLR 23/14 A3011 RMK AO2A SLP199 T02290136 $

Conditions at: KMCF observed 17 November 2017  14:55 UTC
Temperature: 21.4°C (71°F)
Dewpoint: 13.3°C (56°F) [RH = 60%]
Pressure (altimeter): 30.11 inches Hg (1019.7 mb)
[Sea-level pressure: 1019.9 mb]
Winds: from the ENE (60 degrees) at 10 MPH (9 knots; 4.7 m/s)
Visibility: 10 or more miles (16+ km)
Ceiling: at least 12,000 feet AGL
Clouds: sky clear below 12,000 feet AGL
Present Weather:
SOME DATA ABOVE MAY BE INACCURATE!!!
"$" is an indication the sensor requires maintenance
KMCF 171455Z 06009KT 10SM CLR 21/13 A3011 RMK AO2A SLP199 T02140133 52010 $

Conditions at: KMCF observed 17 November 2017  13:55 UTC
Temperature: 18.9°C (66°F)
Dewpoint: 13.7°C (57°F) [RH = 72%]
Pressure (altimeter): 30.10 inches Hg (1019.4 mb)
[Sea-level pressure: 1019.6 mb]
Winds: from the E (80 degrees) at 14 MPH (12 knots; 6.2 m/s)
Visibility: 10 or more miles (16+ km)
Ceiling: at least 12,000 feet AGL
Clouds: sky clear below 12,000 feet AGL
Present Weather:
SOME DATA ABOVE MAY BE INACCURATE!!!
"$" is an indication the sensor requires maintenance
KMCF 171355Z 08012KT 10SM CLR 19/14 A3010 RMK AO2A SLP196 T01890137 $

Conditions at: KMCF observed 17 November 2017  12:58 UTC
Temperature: 16.6°C (62°F)
Dewpoint: 14.8°C (59°F) [RH = 89%]
Pressure (altimeter): 30.10 inches Hg (1019.4 mb)
[Sea-level pressure: 1019.6 mb]
Winds: from the ENE (60 degrees) at 9 MPH (8 knots; 4.2 m/s)
Visibility: 10 or more miles (16+ km)
Ceiling: at least 12,000 feet AGL
Clouds: sky clear below 12,000 feet AGL
Present Weather:
SOME DATA ABOVE MAY BE INACCURATE!!!
"$" is an indication the sensor requires maintenance
KMCF 171258Z COR 06008KT 10SM CLR 17/15 A3010 RMK AO2A SLP196 T01660148 $ COR 1311

Conditions at: KMCF observed 17 November 2017  11:56 UTC
Temperature: 11.6°C (53°F)
Dewpoint: 11.3°C (52°F) [RH = 98%]
Pressure (altimeter): 30.09 inches Hg (1019.0 mb)
[Sea-level pressure: 1019.3 mb]
Winds: from the ENE (70 degrees) at 8 MPH (7 knots; 3.6 m/s)
Visibility: 10 or more miles (16+ km)
Ceiling: at least 12,000 feet AGL
Clouds: sky clear below 12,000 feet AGL
Present Weather:
SOME DATA ABOVE MAY BE INACCURATE!!!
"$" is an indication the sensor requires maintenance
KMCF 171156Z 07007KT 10SM CLR 12/11 A3009 RMK A02A SLP193 T01160113 10150 20115 52006 $

Conditions at: KMCF observed 17 November 2017  10:57 UTC
Temperature: 12.5°C (54°F)
Dewpoint: 12.0°C (54°F) [RH = 97%]
Pressure (altimeter): 30.07 inches Hg (1018.4 mb)
[Sea-level pressure: 1018.6 mb]
Winds: from the ENE (60 degrees) at 6 MPH (5 knots; 2.6 m/s)
Visibility: 10 or more miles (16+ km)
Ceiling: at least 12,000 feet AGL
Clouds: sky clear below 12,000 feet AGL
Present Weather:
SOME DATA ABOVE MAY BE INACCURATE!!!
"$" is an indication the sensor requires maintenance
KMCF 171057Z 06005KT 10SM CLR 13/12 A3007 RMK SLP186 T01250120 $

Conditions at: KMCF observed 17 November 2017  10:55 UTC
Temperature: 12.6°C (55°F)
Dewpoint: 12.3°C (54°F) [RH = 98%]
Pressure (altimeter): 30.07 inches Hg (1018.4 mb)
[Sea-level pressure: 1018.6 mb]
Winds: from the ENE (60 degrees) at 6 MPH (5 knots; 2.6 m/s)
Visibility: 10 or more miles (16+ km)
Ceiling: at least 12,000 feet AGL
Clouds: sky clear below 12,000 feet AGL
Present Weather:
SOME DATA ABOVE MAY BE INACCURATE!!!
"$" is an indication the sensor requires maintenance
KMCF 171055Z 06005KT 10SM CLR 13/12 A3007 RMK SLP186 T01260123 $

Conditions at: KMCF observed 17 November 2017  09:56 UTC
Temperature: 12.7°C (55°F)
Dewpoint: 11.9°C (53°F) [RH = 95%]
Pressure (altimeter): 30.07 inches Hg (1018.4 mb)
[Sea-level pressure: 1018.6 mb]
Winds: from the ENE (60 degrees) at 5 MPH (4 knots; 2.1 m/s)
Visibility: 10 or more miles (16+ km)
Ceiling: at least 12,000 feet AGL
Clouds: sky clear below 12,000 feet AGL
Present Weather: no significant weather observed at this time
KMCF 170956Z 06004KT 10SM CLR 13/12 A3007 RMK AO2A SLP186 T01270119

Conditions at: KMCF observed 17 November 2017  08:56 UTC
Temperature: 14.3°C (58°F)
Dewpoint: 13.8°C (57°F) [RH = 97%]
Pressure (altimeter): 30.07 inches Hg (1018.4 mb)
[Sea-level pressure: 1018.6 mb]
Winds: from the ENE (60 degrees) at 8 MPH (7 knots; 3.6 m/s)
Visibility: 10 or more miles (16+ km)
Ceiling: at least 12,000 feet AGL
Clouds: scattered clouds at 4700 feet AGL
Present Weather: no significant weather observed at this time
KMCF 170856Z 06007KT 10SM SCT047 14/14 A3007 RMK AO2A SLP186 T01430138 56001

Conditions at: KMCF observed 17 November 2017  07:58 UTC
Temperature: 14.9°C (59°F)
Dewpoint: 14.6°C (58°F) [RH = 98%]
Pressure (altimeter): 30.07 inches Hg (1018.4 mb)
[Sea-level pressure: 1018.6 mb]
Winds: from the ENE (60 degrees) at 7 MPH (6 knots; 3.1 m/s)
Visibility: 10 or more miles (16+ km)
Ceiling: 4200 feet AGL
Clouds: overcast cloud deck at 4200 feet AGL
Present Weather: no significant weather observed at this time
KMCF 170758Z 06006KT 10SM OVC042 15/15 A3007 RMK SLP186 T01490146 55002

Conditions at: KMCF observed 17 November 2017  06:56 UTC
Temperature: 13.7°C (57°F)
Dewpoint: 12.3°C (54°F) [RH = 91%]
Pressure (altimeter): 30.07 inches Hg (1018.4 mb)
[Sea-level pressure: 1018.6 mb]
Winds: from the ENE (70 degrees) at 3 MPH (3 knots; 1.6 m/s)
Visibility: 10 or more miles (16+ km)
Ceiling: at least 12,000 feet AGL
Clouds: sky clear below 12,000 feet AGL
Present Weather: no significant weather observed at this time
KMCF 170656Z 07003KT 10SM CLR 14/12 A3007 RMK AO2A SLP186 T01370123

Conditions at: KMCF observed 17 November 2017  05:56 UTC
Temperature: 13.7°C (57°F)
Dewpoint: 12.1°C (54°F) [RH = 90%]
Pressure (altimeter): 30.07 inches Hg (1018.4 mb)
[Sea-level pressure: 1018.6 mb]
Winds: from the ENE (60 degrees) at 5 MPH (4 knots; 2.1 m/s)
Visibility: 10 or more miles (16+ km)
Ceiling: at least 12,000 feet AGL
Clouds: sky clear below 12,000 feet AGL
Present Weather: no significant weather observed at this time
KMCF 170556Z 06004KT 10SM CLR 14/12 A3007 RMK AO2A DZB43E54 SLP186 T01370121 10187 20137 58001

Conditions at: KMCF observed 17 November 2017  04:56 UTC
Temperature: 13.9°C (57°F)
Dewpoint: 11.2°C (52°F) [RH = 84%]
Pressure (altimeter): 30.08 inches Hg (1018.7 mb)
[Sea-level pressure: 1018.9 mb]
Winds: from the ENE (60 degrees) at 8 MPH (7 knots; 3.6 m/s)
Visibility: 10 or more miles (16+ km)
Ceiling: at least 12,000 feet AGL
Clouds: sky clear below 12,000 feet AGL
Present Weather: no significant weather observed at this time
KMCF 170456Z 06007KT 10SM CLR 14/11 A3008 RMK AO2A SLP189 T01390112 402640139

Conditions at: KMCF observed 17 November 2017  03:56 UTC
Temperature: 15.2°C (59°F)
Dewpoint: 11.0°C (52°F) [RH = 76%]
Pressure (altimeter): 30.07 inches Hg (1018.4 mb)
[Sea-level pressure: 1018.6 mb]
Winds: from the NE (40 degrees) at 5 MPH (4 knots; 2.1 m/s)
Visibility: 10 or more miles (16+ km)
Ceiling: at least 12,000 feet AGL
Clouds: sky clear below 12,000 feet AGL
Present Weather:
SOME DATA ABOVE MAY BE INACCURATE!!!
"$" is an indication the sensor requires maintenance
KMCF 170356Z AUTO 04004KT 10SM CLR 15/11 A3007 RMK AO2 SLP186 T01520110 FZRANO $

Conditions at: KMCF observed 17 November 2017  02:56 UTC
Temperature: 14.7°C (58°F)
Dewpoint: 11.5°C (53°F) [RH = 81%]
Pressure (altimeter): 30.07 inches Hg (1018.4 mb)
[Sea-level pressure: 1018.6 mb]
Winds: from the ENE (70 degrees) at 5 MPH (4 knots; 2.1 m/s)
Visibility: 10 or more miles (16+ km)
Ceiling: at least 12,000 feet AGL
Clouds: sky clear below 12,000 feet AGL
Present Weather: no significant weather observed at this time
KMCF 170256Z 07004KT 10SM CLR 15/12 A3007 RMK AO2A SLP186 T01470115 52012

Conditions at: KMCF observed 17 November 2017  01:56 UTC
Temperature: 16.5°C (62°F)
Dewpoint: 11.8°C (53°F) [RH = 74%]
Pressure (altimeter): 30.06 inches Hg (1018.0 mb)
[Sea-level pressure: 1018.2 mb]
Winds: from the NE (40 degrees) at 3 MPH (3 knots; 1.6 m/s)
Visibility: 10 or more miles (16+ km)
Ceiling: at least 12,000 feet AGL
Clouds: sky clear below 12,000 feet AGL
Present Weather: no significant weather observed at this time
KMCF 170156Z 04003KT 10SM CLR 17/12 A3006 RMK AO2A SLP182 T01650118

Conditions at: KMCF observed 17 November 2017  00:56 UTC
Temperature: 17.7°C (64°F)
Dewpoint: 12.6°C (55°F) [RH = 72%]
Pressure (altimeter): 30.05 inches Hg (1017.7 mb)
[Sea-level pressure: 1017.9 mb]
Winds: from the NNE (20 degrees) at 6 MPH (5 knots; 2.6 m/s)
Visibility: 10 or more miles (16+ km)
Ceiling: at least 12,000 feet AGL
Clouds: sky clear below 12,000 feet AGL
Present Weather: no significant weather observed at this time
KMCF 170056Z 02005KT 10SM CLR 18/13 A3005 RMK AO2A SLP179 T01770126

Conditions at: KMCF observed 16 November 2017  23:56 UTC
Temperature: 18.7°C (66°F)
Dewpoint: 13.8°C (57°F) [RH = 73%]
Pressure (altimeter): 30.04 inches Hg (1017.4 mb)
[Sea-level pressure: 1017.6 mb]
Winds: from the N (10 degrees) at 8 MPH (7 knots; 3.6 m/s)
Visibility: 10 or more miles (16+ km)
Ceiling: at least 12,000 feet AGL
Clouds: sky clear below 12,000 feet AGL
Present Weather: no significant weather observed at this time
KMCF 162356Z 01007KT 10SM CLR 19/14 A3004 RMK AO2A SLP176 T01870138 10264 20186 52017

Conditions at: KMCF observed 16 November 2017  22:56 UTC
Temperature: 19.5°C (67°F)
Dewpoint: 15.3°C (60°F) [RH = 77%]
Pressure (altimeter): 30.01 inches Hg (1016.3 mb)
[Sea-level pressure: 1016.5 mb]
Winds: from the NNW (340 degrees) at 6 MPH (5 knots; 2.6 m/s)
Visibility: 10 or more miles (16+ km)
Ceiling: at least 12,000 feet AGL
Clouds: sky clear below 12,000 feet AGL
Present Weather:
SOME DATA ABOVE MAY BE INACCURATE!!!
"$" is an indication the sensor requires maintenance
KMCF 162256Z 34005KT 10SM CLR 20/15 A3001 RMK AO2A SLP165 T01950153 $

Conditions at: KMCF observed 16 November 2017  21:56 UTC
Temperature: 23.1°C (74°F)
Dewpoint: 15.9°C (61°F) [RH = 64%]
Pressure (altimeter): 30.00 inches Hg (1016.0 mb)
[Sea-level pressure: 1016.2 mb]
Winds: from the NNW (340 degrees) at 7 MPH (6 knots; 3.1 m/s)
Visibility: 10 or more miles (16+ km)
Ceiling: at least 12,000 feet AGL
Clouds: sky clear below 12,000 feet AGL
Present Weather:
SOME DATA ABOVE MAY BE INACCURATE!!!
"$" is an indication the sensor requires maintenance
KMCF 162156Z 34006KT 10SM CLR 23/16 A3000 RMK AO2A SLP162 T02310159 $

Conditions at: KMCF observed 16 November 2017  20:56 UTC
Temperature: 26.3°C (79°F)
Dewpoint: 15.6°C (60°F) [RH = 52%]
Pressure (altimeter): 29.99 inches Hg (1015.7 mb)
[Sea-level pressure: 1015.9 mb]
Winds: from the N (350 degrees) at 8 MPH (7 knots; 3.6 m/s)
Visibility: 10 or more miles (16+ km)
Ceiling: at least 12,000 feet AGL
Clouds: sky clear below 12,000 feet AGL
Present Weather:
SOME DATA ABOVE MAY BE INACCURATE!!!
"$" is an indication the sensor requires maintenance
KMCF 162056Z 35007KT 10SM CLR 26/16 A2999 RMK AO2A SLP159 T02630156 55007 $

Conditions at: KMCF observed 16 November 2017  19:56 UTC
Temperature: 25.0°C (77°F)
Dewpoint: 13.0°C (55°F) [RH = 47%]
Pressure (altimeter): 29.98 inches Hg (1015.3 mb)
[Sea-level pressure: 1015.5 mb]
Winds: from the N (360 degrees) at 8 MPH (7 knots; 3.6 m/s)
Visibility: 10 or more miles (16+ km)
Ceiling: at least 12,000 feet AGL
Clouds: sky clear below 12,000 feet AGL
Present Weather:
SOME DATA ABOVE MAY BE INACCURATE!!!
"$" is an indication the sensor requires maintenance
KMCF 161956Z 36007KT 10SM CLR 25/13 A2998 RMK AO2A SLP155 02500132 $

Conditions at: KMCF observed 16 November 2017  18:56 UTC
Temperature: 25.0°C (77°F)
Dewpoint: 15.0°C (59°F) [RH = 54%]
Pressure (altimeter): 29.99 inches Hg (1015.7 mb)
[Sea-level pressure: 1015.9 mb]
Winds: from the N (350 degrees) at 9 MPH (8 knots; 4.2 m/s)
Visibility: 10 or more miles (16+ km)
Ceiling: at least 12,000 feet AGL
Clouds: sky clear below 12,000 feet AGL
Present Weather:
SOME DATA ABOVE MAY BE INACCURATE!!!
"$" is an indication the sensor requires maintenance
KMCF 161856Z 35008KT 10SM CLR 25/15 A2999 RMK AO2A SLP159 02480148 $

Conditions at: KMCF observed 16 November 2017  17:56 UTC
Temperature: 24.3°C (76°F)
Dewpoint: 15.8°C (60°F) [RH = 59%]
Pressure (altimeter): 30.01 inches Hg (1016.3 mb)
[Sea-level pressure: 1016.5 mb]
Winds: from the NNW (330 degrees) at 10 MPH (9 knots; 4.7 m/s)
Visibility: 10 or more miles (16+ km)
Ceiling: at least 12,000 feet AGL
Clouds: sky clear below 12,000 feet AGL
Present Weather:
SOME DATA ABOVE MAY BE INACCURATE!!!
"$" is an indication the sensor requires maintenance
KMCF 161756Z 33009KT 10SM CLR 24/16 A3001 RMK AO2A SLP165 T02430158 10248 20159 57023 $